createdAt,value
2023-04-18T00:01:26.968Z,79.76
2023-04-18T00:03:59.618Z,78.15
2023-04-18T00:06:32.219Z,75.75
2023-04-18T00:09:07.474Z,74.39
2023-04-18T00:11:39.822Z,73.33
2023-04-18T00:14:12.293Z,72.52
2023-04-18T00:16:44.859Z,72.70
2023-04-18T00:19:18.529Z,72.66
2023-04-18T00:21:53.663Z,72.33
2023-04-18T00:24:28.465Z,71.57
2023-04-18T00:27:01.791Z,70.69
2023-04-18T00:29:34.550Z,68.59
2023-04-18T00:32:07.274Z,67.37
2023-04-18T00:34:40.620Z,66.11
2023-04-18T00:37:13.128Z,65.48
2023-04-18T00:39:47.973Z,65.19
2023-04-18T00:42:20.349Z,64.71
2023-04-18T00:44:52.858Z,64.17
2023-04-18T00:47:25.183Z,63.97
2023-04-18T00:49:58.350Z,62.97
2023-04-18T00:52:33.940Z,62.89
2023-04-18T00:55:12.258Z,62.48
2023-04-18T00:57:46.111Z,62.36
2023-04-18T01:00:19.337Z,62.51
2023-04-18T01:02:53.453Z,63.28
2023-04-18T01:05:26.574Z,63.89
2023-04-18T01:08:01.452Z,64.83
2023-04-18T01:10:36.471Z,66.35
2023-04-18T01:13:16.756Z,66.96
2023-04-18T01:15:51.721Z,67.30
2023-04-18T01:18:24.563Z,67.38
2023-04-18T01:21:00.254Z,67.23
2023-04-18T01:23:32.550Z,67.19
2023-04-18T01:26:07.383Z,66.68
2023-04-18T01:28:41.585Z,66.18
2023-04-18T01:31:13.860Z,65.94
2023-04-18T01:33:46.671Z,65.41
2023-04-18T01:36:19.268Z,65.33
2023-04-18T01:38:51.582Z,65.19
2023-04-18T01:41:27.491Z,65.00
2023-04-18T01:44:00.227Z,64.69
2023-04-18T01:46:32.744Z,64.74
2023-04-18T01:49:05.012Z,64.72
2023-04-18T01:51:38.954Z,64.67
2023-04-18T01:54:11.402Z,64.66
2023-04-18T01:56:46.287Z,64.75
2023-04-18T01:59:18.545Z,64.58
2023-04-18T02:01:51.322Z,64.68
2023-04-18T02:04:23.659Z,64.72
2023-04-18T02:06:56.006Z,64.88
2023-04-18T02:09:28.313Z,64.61
2023-04-18T02:12:05.038Z,64.64
2023-04-18T02:14:40.162Z,64.88
2023-04-18T02:17:12.384Z,65.06
2023-04-18T02:19:44.589Z,65.07
2023-04-18T02:22:16.998Z,65.16
2023-04-18T02:24:49.369Z,65.27
2023-04-18T02:27:24.185Z,65.34
2023-04-18T02:29:56.450Z,65.43
2023-04-18T02:32:30.253Z,65.60
2023-04-18T02:35:02.567Z,65.72
2023-04-18T02:37:34.743Z,65.66
2023-04-18T02:40:07.401Z,65.86
2023-04-18T02:42:42.799Z,65.86
2023-04-18T02:45:15.423Z,66.24
2023-04-18T02:47:55.557Z,66.29
2023-04-18T02:50:29.314Z,66.50
2023-04-18T02:53:01.793Z,66.93
2023-04-18T02:55:34.119Z,66.73
2023-04-18T02:58:09.562Z,66.79
2023-04-18T03:00:41.755Z,67.03
2023-04-18T03:03:14.400Z,67.62
2023-04-18T03:05:46.804Z,67.41
2023-04-18T03:08:19.136Z,67.47
2023-04-18T03:10:51.459Z,67.65
2023-04-18T03:13:26.412Z,67.61
2023-04-18T03:15:58.973Z,67.67
2023-04-18T03:18:31.635Z,67.53
2023-04-18T03:21:03.877Z,67.65
2023-04-18T03:23:36.392Z,67.75
2023-04-18T03:26:10.198Z,67.77
2023-04-18T03:28:45.082Z,67.55
2023-04-18T03:31:17.406Z,67.60
2023-04-18T03:33:51.812Z,67.96
2023-04-18T03:36:25.522Z,67.93
2023-04-18T03:38:58.747Z,67.79
2023-04-18T03:41:31.076Z,67.95
2023-04-18T03:44:05.879Z,67.90
2023-04-18T03:46:38.555Z,68.10
2023-04-18T03:49:10.870Z,68.21
2023-04-18T03:51:50.726Z,68.29
2023-04-18T03:54:23.553Z,68.37
2023-04-18T03:56:56.060Z,68.70
2023-04-18T03:59:31.400Z,69.01
2023-04-18T04:02:03.868Z,69.10
2023-04-18T04:04:36.254Z,69.29
2023-04-18T04:07:08.820Z,69.72
2023-04-18T04:09:41.064Z,69.98
2023-04-18T04:12:13.604Z,70.17
2023-04-18T04:14:48.416Z,70.10
2023-04-18T04:17:20.956Z,70.08
2023-04-18T04:19:53.899Z,69.91
2023-04-18T04:22:26.937Z,69.54
2023-04-18T04:25:00.977Z,69.81
2023-04-18T04:27:34.149Z,69.82
2023-04-18T04:30:11.977Z,69.67
2023-04-18T04:32:45.861Z,69.50
2023-04-18T04:35:18.223Z,69.51
2023-04-18T04:37:50.849Z,69.65
2023-04-18T04:40:23.246Z,69.29
2023-04-18T04:42:56.329Z,69.26
2023-04-18T04:45:31.361Z,69.53
2023-04-18T04:48:03.785Z,69.52
2023-04-18T04:50:40.414Z,69.68
2023-04-18T04:53:13.249Z,69.71
2023-04-18T04:55:45.698Z,69.67
2023-04-18T04:58:17.944Z,69.52
2023-04-18T05:00:53.909Z,69.80
2023-04-18T05:03:27.524Z,69.93
2023-04-18T05:06:00.234Z,69.99
2023-04-18T05:08:32.510Z,69.98
2023-04-18T05:11:05.981Z,69.92
2023-04-18T05:13:38.524Z,70.11
2023-04-18T05:16:13.851Z,70.20
2023-04-18T05:18:46.191Z,70.29
2023-04-18T05:21:18.448Z,70.50
2023-04-18T05:23:51.058Z,70.40
2023-04-18T05:26:23.351Z,70.46
2023-04-18T05:28:55.658Z,70.34
2023-04-18T05:31:30.611Z,70.47
2023-04-18T05:34:02.912Z,70.49
2023-04-18T05:36:35.717Z,70.59
2023-04-18T05:39:08.334Z,70.80
2023-04-18T05:41:41.083Z,70.81
2023-04-18T05:44:13.688Z,70.98
2023-04-18T05:46:51.497Z,71.06
2023-04-18T05:49:23.823Z,71.00
2023-04-18T05:51:56.778Z,70.99
2023-04-18T05:54:29.195Z,71.04
2023-04-18T05:57:03.863Z,70.94
2023-04-18T05:59:36.930Z,71.15
2023-04-18T06:02:13.763Z,71.17
2023-04-18T06:04:48.748Z,71.10
2023-04-18T06:07:21.578Z,71.24
2023-04-18T06:09:54.280Z,71.17
2023-04-18T06:12:26.798Z,71.04
2023-04-18T06:14:59.149Z,70.95
2023-04-18T06:17:34.561Z,71.04
2023-04-18T06:20:07.268Z,71.01
2023-04-18T06:22:39.868Z,70.68
2023-04-18T06:25:12.970Z,70.59
2023-04-18T06:27:45.256Z,70.78
2023-04-18T06:30:22.120Z,70.40
2023-04-18T06:32:57.534Z,70.26
2023-04-18T06:35:29.826Z,70.12
2023-04-18T06:38:02.427Z,69.76
2023-04-18T06:40:34.703Z,69.69
2023-04-18T06:43:07.218Z,69.42
2023-04-18T06:45:40.259Z,69.40
2023-04-18T06:48:15.194Z,69.25
2023-04-18T06:50:47.389Z,68.35
2023-04-18T06:53:20.030Z,68.52
2023-04-18T06:55:52.688Z,68.07
2023-04-18T06:58:24.942Z,67.81
2023-04-18T07:00:57.220Z,67.50
2023-04-18T07:03:32.500Z,67.95
2023-04-18T07:06:04.793Z,67.72
2023-04-18T07:08:37.271Z,67.51
2023-04-18T07:11:10.272Z,67.29
2023-04-18T07:13:43.378Z,67.36
2023-04-18T07:16:15.724Z,66.86
2023-04-18T07:18:51.850Z,66.60
2023-04-18T07:21:24.206Z,66.72
2023-04-18T07:23:56.582Z,66.90
2023-04-18T07:26:29.377Z,66.82
2023-04-18T07:29:01.720Z,66.63
2023-04-18T07:31:34.310Z,66.80
2023-04-18T07:34:09.248Z,66.60
2023-04-18T07:36:41.557Z,66.28
2023-04-18T07:39:14.199Z,66.58
2023-04-18T07:41:46.490Z,66.31
2023-04-18T07:44:18.741Z,66.28
2023-04-18T07:46:51.179Z,66.51
2023-04-18T07:49:26.117Z,66.06
2023-04-18T07:51:58.390Z,66.25
2023-04-18T07:54:30.773Z,65.51
2023-04-18T07:57:03.607Z,64.57
2023-04-18T07:59:36.196Z,64.58
2023-04-18T08:02:08.740Z,64.28
2023-04-18T08:04:43.724Z,64.03
2023-04-18T08:07:16.019Z,64.00
2023-04-18T08:09:48.425Z,64.55
2023-04-18T08:12:20.861Z,64.21
2023-04-18T08:14:53.097Z,63.52
2023-04-18T08:17:26.220Z,62.74
2023-04-18T08:20:05.300Z,62.78
2023-04-18T08:22:50.067Z,62.77
2023-04-18T08:25:31.790Z,62.45
2023-04-18T08:28:04.337Z,62.30
2023-04-18T08:30:37.063Z,61.98
2023-04-18T08:33:09.692Z,61.69
2023-04-18T08:35:44.546Z,61.24
2023-04-18T08:38:17.402Z,60.76
2023-04-18T08:40:50.684Z,60.03
2023-04-18T08:43:23.117Z,59.29
2023-04-18T08:45:55.485Z,59.47
2023-04-18T08:48:28.008Z,58.62
2023-04-18T08:51:05.565Z,58.96
2023-04-18T08:53:39.473Z,59.17
2023-04-18T08:56:14.824Z,59.13
2023-04-18T08:58:48.198Z,59.36
2023-04-18T09:01:21.636Z,59.79
2023-04-18T09:03:53.967Z,59.78
2023-04-18T09:06:30.449Z,58.90
2023-04-18T09:09:04.555Z,59.53
2023-04-18T09:11:36.794Z,58.98
2023-04-18T09:14:09.035Z,58.70
2023-04-18T09:16:50.768Z,58.35
2023-04-18T09:19:23.907Z,58.31
2023-04-18T09:22:08.416Z,57.96
2023-04-18T09:24:40.637Z,58.03
2023-04-18T09:27:17.125Z,58.20
2023-04-18T09:29:52.094Z,56.52
2023-04-18T09:32:29.598Z,56.60
2023-04-18T09:35:05.586Z,56.64
2023-04-18T09:37:40.681Z,56.90
2023-04-18T09:40:21.548Z,57.41
2023-04-18T09:42:57.231Z,58.13
2023-04-18T09:45:30.734Z,58.51
2023-04-18T09:48:03.043Z,58.23
2023-04-18T09:50:38.117Z,57.12
2023-04-18T09:53:15.294Z,56.80
2023-04-18T09:55:47.999Z,55.51
2023-04-18T09:58:24.689Z,55.36
2023-04-18T10:00:59.981Z,54.62
2023-04-18T10:03:44.502Z,54.75
2023-04-18T10:06:21.223Z,54.45
2023-04-18T10:08:57.888Z,53.83
2023-04-18T10:11:31.010Z,53.67
2023-04-18T10:14:08.391Z,52.97
2023-04-18T10:16:42.621Z,52.68
2023-04-18T10:19:29.779Z,53.06
2023-04-18T10:22:04.752Z,52.85
2023-04-18T10:24:57.301Z,52.75
2023-04-18T10:28:00.179Z,53.15
2023-04-18T10:30:55.213Z,53.73
2023-04-18T10:33:33.795Z,53.08
2023-04-18T10:36:20.334Z,53.07
2023-04-18T10:38:54.713Z,53.45
2023-04-18T10:41:32.131Z,52.90
2023-04-18T10:44:23.731Z,52.24
2023-04-18T10:47:32.459Z,51.92
2023-04-18T10:50:07.057Z,51.98
2023-04-18T10:52:39.623Z,51.26
2023-04-18T10:55:28.232Z,51.26
2023-04-18T10:58:03.375Z,51.85
2023-04-18T11:00:36.589Z,49.87
2023-04-18T11:03:09.794Z,49.69
2023-04-18T11:05:42.187Z,49.61
2023-04-18T11:08:26.996Z,49.06
2023-04-18T11:11:04.281Z,49.24
2023-04-18T11:13:39.305Z,50.13
2023-04-18T11:16:12.271Z,49.75
2023-04-18T11:18:44.722Z,50.07
2023-04-18T11:21:17.852Z,50.68
2023-04-18T11:23:50.777Z,51.21
2023-04-18T11:26:23.571Z,50.97
2023-04-18T11:29:02.629Z,50.63
2023-04-18T11:31:35.641Z,51.09
2023-04-18T11:34:07.928Z,50.96
2023-04-18T11:36:40.461Z,51.41
2023-04-18T11:39:12.968Z,51.63
2023-04-18T11:41:50.603Z,52.13
2023-04-18T11:44:28.431Z,52.51
2023-04-18T11:47:01.110Z,53.13
2023-04-18T11:49:34.896Z,53.74
2023-04-18T11:52:15.935Z,53.24
2023-04-18T11:54:48.851Z,52.78
2023-04-18T11:57:26.713Z,52.60
2023-04-18T12:00:04.218Z,52.37
2023-04-18T12:02:46.190Z,52.62
2023-04-18T12:05:29.938Z,53.35
2023-04-18T12:08:11.516Z,53.25
2023-04-18T12:10:51.394Z,53.82
2023-04-18T12:13:29.766Z,53.40
2023-04-18T12:16:06.495Z,53.75
2023-04-18T12:18:39.321Z,52.81
2023-04-18T12:21:11.911Z,52.02
2023-04-18T12:23:46.124Z,51.98
2023-04-18T12:26:23.033Z,51.07
2023-04-18T12:28:57.079Z,51.20
2023-04-18T12:31:31.918Z,52.00
2023-04-18T12:34:04.145Z,51.57
2023-04-18T12:36:36.387Z,51.51
2023-04-18T12:39:08.996Z,51.38
2023-04-18T12:41:41.252Z,51.17
2023-04-18T12:44:13.752Z,51.16
2023-04-18T12:46:48.808Z,50.37
2023-04-18T12:49:21.137Z,50.76
2023-04-18T12:51:54.432Z,51.06
2023-04-18T12:54:26.719Z,50.09
2023-04-18T12:56:59.024Z,49.56
2023-04-18T12:59:31.263Z,49.63
2023-04-18T13:02:06.289Z,50.41
2023-04-18T13:04:38.812Z,51.14
2023-04-18T13:07:11.314Z,51.55
2023-04-18T13:09:43.728Z,51.81
2023-04-18T13:12:16.200Z,51.92
2023-04-18T13:14:48.455Z,52.21
2023-04-18T13:17:23.367Z,52.70
2023-04-18T13:19:55.614Z,52.98
2023-04-18T13:22:28.568Z,53.22
2023-04-18T13:25:00.859Z,53.01
2023-04-18T13:27:33.435Z,53.18
2023-04-18T13:30:06.123Z,53.88
2023-04-18T13:32:43.203Z,54.19
2023-04-18T13:35:16.258Z,54.11
2023-04-18T13:37:48.738Z,53.66
2023-04-18T13:40:20.982Z,52.60
2023-04-18T13:42:53.454Z,51.77
2023-04-18T13:45:25.676Z,51.70
2023-04-18T13:48:00.812Z,51.86
2023-04-18T13:50:33.102Z,51.89
2023-04-18T13:53:05.425Z,51.60
2023-04-18T13:55:38.621Z,49.99
2023-04-18T13:58:10.906Z,49.41
2023-04-18T14:00:43.379Z,49.13
2023-04-18T14:03:19.542Z,49.59
2023-04-18T14:05:51.879Z,48.98
2023-04-18T14:08:24.058Z,47.52
2023-04-18T14:10:56.349Z,45.26
2023-04-18T14:13:28.666Z,44.01
2023-04-18T14:16:00.943Z,43.13
2023-04-18T14:18:36.124Z,43.51
2023-04-18T14:21:09.180Z,44.18
2023-04-18T14:23:41.626Z,44.04
2023-04-18T14:26:13.887Z,44.40
2023-04-18T14:28:46.104Z,45.44
2023-04-18T14:31:18.840Z,46.00
2023-04-18T14:33:53.806Z,46.36
2023-04-18T14:36:26.479Z,46.16
2023-04-18T14:38:59.290Z,46.12
2023-04-18T14:41:31.660Z,46.16
2023-04-18T14:44:04.275Z,46.41
2023-04-18T14:46:36.729Z,46.12
2023-04-18T14:49:11.600Z,45.84
2023-04-18T14:51:44.586Z,45.91
2023-04-18T14:54:16.885Z,46.67
2023-04-18T14:56:49.287Z,43.67
2023-04-18T14:59:21.565Z,39.56
2023-04-18T15:01:54.004Z,38.46
2023-04-18T15:04:29.106Z,36.72
2023-04-18T15:07:02.693Z,36.82
2023-04-18T15:09:39.208Z,36.75
2023-04-18T15:12:11.988Z,34.51
2023-04-18T15:14:44.388Z,33.25
2023-04-18T15:17:16.823Z,32.30
2023-04-18T15:19:51.790Z,30.33
2023-04-18T15:22:24.254Z,30.78
2023-04-18T15:24:56.469Z,31.12
2023-04-18T15:27:28.701Z,31.19
2023-04-18T15:30:00.998Z,30.61
2023-04-18T15:32:34.257Z,30.66
2023-04-18T15:35:10.172Z,29.81
2023-04-18T15:37:42.664Z,29.67
2023-04-18T15:40:16.535Z,30.42
2023-04-18T15:42:49.678Z,33.76
2023-04-18T15:45:22.005Z,36.22
2023-04-18T15:47:54.341Z,37.75
2023-04-18T15:50:30.802Z,38.56
2023-04-18T15:53:04.504Z,39.29
2023-04-18T15:55:36.771Z,39.62
2023-04-18T15:58:09.481Z,39.44
2023-04-18T16:00:41.899Z,39.70
2023-04-18T16:03:14.403Z,38.77
2023-04-18T16:05:49.893Z,34.22
2023-04-18T16:08:22.111Z,32.47
2023-04-18T16:10:56.264Z,33.19
2023-04-18T16:13:28.735Z,33.64
2023-04-18T16:16:01.049Z,33.45
2023-04-18T16:18:34.097Z,33.02
2023-04-18T16:21:09.233Z,30.10
2023-04-18T16:23:41.623Z,29.24
2023-04-18T16:26:13.890Z,30.80
2023-04-18T16:28:46.149Z,33.93
2023-04-18T16:31:18.859Z,36.08
2023-04-18T16:33:52.748Z,38.19
2023-04-18T16:36:27.828Z,39.97
2023-04-18T16:39:00.043Z,42.12
2023-04-18T16:41:32.291Z,43.38
2023-04-18T16:44:04.516Z,44.25
2023-04-18T16:46:36.808Z,43.47
2023-04-18T16:49:09.115Z,42.14
2023-04-18T16:51:44.185Z,42.25
2023-04-18T16:54:16.553Z,42.43
2023-04-18T16:56:48.889Z,42.30
2023-04-18T16:59:21.161Z,41.55
2023-04-18T17:01:53.596Z,41.75
2023-04-18T17:04:27.083Z,42.19
2023-04-18T17:07:01.984Z,42.87
2023-04-18T17:09:34.987Z,44.21
2023-04-18T17:12:08.575Z,44.96
2023-04-18T17:14:40.823Z,44.98
2023-04-18T17:17:13.176Z,45.40
2023-04-18T17:19:46.172Z,45.98
2023-04-18T17:22:21.221Z,46.67
2023-04-18T17:24:53.548Z,47.20
2023-04-18T17:27:25.748Z,47.77
2023-04-18T17:29:58.005Z,48.22
2023-04-18T17:32:30.423Z,48.77
2023-04-18T17:35:04.923Z,48.99
2023-04-18T17:37:39.807Z,49.30
2023-04-18T17:40:13.330Z,49.51
2023-04-18T17:42:45.845Z,49.66
2023-04-18T17:45:18.064Z,49.56
2023-04-18T17:47:51.084Z,49.68
2023-04-18T17:50:23.539Z,49.76
2023-04-18T17:52:58.520Z,50.04
2023-04-18T17:55:30.725Z,50.09
2023-04-18T17:58:02.966Z,50.12
2023-04-18T18:00:35.575Z,50.72
2023-04-18T18:03:13.606Z,50.81
2023-04-18T18:05:49.173Z,51.11
2023-04-18T18:08:24.494Z,51.26
2023-04-18T18:10:56.695Z,51.73
2023-04-18T18:13:28.998Z,52.09
2023-04-18T18:16:01.260Z,52.33
2023-04-18T18:18:33.625Z,52.71
2023-04-18T18:21:05.972Z,52.97
2023-04-18T18:23:40.816Z,53.13
2023-04-18T18:26:13.204Z,53.52
2023-04-18T18:28:45.391Z,53.85
2023-04-18T18:31:17.887Z,54.21
2023-04-18T18:33:50.282Z,54.68
2023-04-18T18:36:22.547Z,55.09
2023-04-18T18:38:57.377Z,55.32
2023-04-18T18:41:29.620Z,55.80
2023-04-18T18:44:02.030Z,55.93
2023-04-18T18:46:35.550Z,56.11
2023-04-18T18:49:08.294Z,56.37
2023-04-18T18:51:41.156Z,56.72
2023-04-18T18:54:16.053Z,56.82
2023-04-18T18:56:48.436Z,57.14
2023-04-18T18:59:20.714Z,57.37
2023-04-18T19:01:53.143Z,57.81
2023-04-18T19:04:26.142Z,58.37
2023-04-18T19:06:58.430Z,58.56
2023-04-18T19:09:33.197Z,58.61
2023-04-18T19:12:05.463Z,58.83
2023-04-18T19:14:37.844Z,59.27
2023-04-18T19:17:10.108Z,59.32
2023-04-18T19:19:42.943Z,59.43
2023-04-18T19:22:16.890Z,59.58
2023-04-18T19:24:52.233Z,59.53
2023-04-18T19:27:24.472Z,59.60
2023-04-18T19:29:56.763Z,59.64
2023-04-18T19:32:29.217Z,59.96
2023-04-18T19:35:01.500Z,60.15
2023-04-18T19:37:33.727Z,60.24
2023-04-18T19:40:09.558Z,60.35
2023-04-18T19:42:42.079Z,60.45
2023-04-18T19:45:15.524Z,60.69
2023-04-18T19:47:48.026Z,60.95
2023-04-18T19:50:20.629Z,61.14
2023-04-18T19:52:53.003Z,61.35
2023-04-18T19:55:28.087Z,61.48
2023-04-18T19:58:00.868Z,61.62
2023-04-18T20:00:34.294Z,61.84
2023-04-18T20:03:06.799Z,61.99
2023-04-18T20:05:39.489Z,62.14
2023-04-18T20:08:11.754Z,62.29
2023-04-18T20:10:46.632Z,62.34
2023-04-18T20:13:19.045Z,62.50
2023-04-18T20:15:51.320Z,62.69
2023-04-18T20:18:24.822Z,62.70
2023-04-18T20:20:57.040Z,62.86
2023-04-18T20:23:29.597Z,62.95
2023-04-18T20:26:04.622Z,63.12
2023-04-18T20:28:38.033Z,63.04
2023-04-18T20:31:10.325Z,63.10
2023-04-18T20:33:42.715Z,63.27
2023-04-18T20:36:17.702Z,63.31
2023-04-18T20:38:50.503Z,63.38
2023-04-18T20:41:26.967Z,63.48
2023-04-18T20:44:00.068Z,63.66
2023-04-18T20:46:32.416Z,63.70
2023-04-18T20:49:04.796Z,63.82
2023-04-18T20:51:38.163Z,63.86
2023-04-18T20:54:10.678Z,64.02
2023-04-18T20:56:45.529Z,64.07
2023-04-18T20:59:17.760Z,64.14
2023-04-18T21:01:50.184Z,64.43
2023-04-18T21:04:22.781Z,64.79
2023-04-18T21:06:55.024Z,64.90
2023-04-18T21:09:27.276Z,64.83
2023-04-18T21:12:02.711Z,64.86
2023-04-18T21:14:34.948Z,64.84
2023-04-18T21:17:07.167Z,64.83
2023-04-18T21:19:39.407Z,64.83
2023-04-18T21:22:12.411Z,64.87
2023-04-18T21:24:45.281Z,65.01
2023-04-18T21:27:20.094Z,65.05
2023-04-18T21:29:52.346Z,65.06
2023-04-18T21:32:24.708Z,65.02
2023-04-18T21:34:57.962Z,65.16
2023-04-18T21:37:30.167Z,65.25
2023-04-18T21:40:02.355Z,65.40
2023-04-18T21:42:37.765Z,65.45
2023-04-18T21:45:11.389Z,65.66
2023-04-18T21:47:43.623Z,65.67
2023-04-18T21:50:16.159Z,65.66
2023-04-18T21:52:48.384Z,65.80
2023-04-18T21:55:21.384Z,65.91
2023-04-18T21:57:56.953Z,66.04
2023-04-18T22:00:29.307Z,66.23
2023-04-18T22:03:01.772Z,66.37
2023-04-18T22:05:34.124Z,66.57
2023-04-18T22:08:06.363Z,66.65
2023-04-18T22:10:38.976Z,66.81
2023-04-18T22:13:14.103Z,66.98
2023-04-18T22:15:46.296Z,67.15
2023-04-18T22:18:18.902Z,67.21
2023-04-18T22:20:51.131Z,67.46
2023-04-18T22:23:23.475Z,67.56
2023-04-18T22:25:55.673Z,67.77
2023-04-18T22:28:30.947Z,68.01
2023-04-18T22:31:03.336Z,68.13
2023-04-18T22:33:35.590Z,68.23
2023-04-18T22:36:08.515Z,68.33
2023-04-18T22:38:40.725Z,68.39
2023-04-18T22:41:13.215Z,68.50
2023-04-18T22:43:48.113Z,68.76
2023-04-18T22:46:20.382Z,68.89
2023-04-18T22:48:54.363Z,68.92
2023-04-18T22:51:28.803Z,69.02
2023-04-18T22:54:01.412Z,69.30
2023-04-18T22:56:33.706Z,69.25
2023-04-18T22:59:08.455Z,69.36
2023-04-18T23:01:40.819Z,69.62
2023-04-18T23:04:13.277Z,70.12
2023-04-18T23:06:45.706Z,70.27
2023-04-18T23:09:19.850Z,70.25
2023-04-18T23:11:52.161Z,70.34
2023-04-18T23:14:26.967Z,70.42
2023-04-18T23:16:59.262Z,70.46
2023-04-18T23:19:31.460Z,70.70
2023-04-18T23:22:04.499Z,70.67
2023-04-18T23:24:36.818Z,70.83
2023-04-18T23:27:09.193Z,70.93
2023-04-18T23:29:44.251Z,71.26
2023-04-18T23:32:16.653Z,71.32
2023-04-18T23:34:49.772Z,71.42
2023-04-18T23:37:22.050Z,71.41
2023-04-18T23:39:54.345Z,71.42
2023-04-18T23:42:26.761Z,71.46
2023-04-18T23:45:01.594Z,71.38
2023-04-18T23:47:34.243Z,71.23
2023-04-18T23:50:06.773Z,71.22
2023-04-18T23:52:39.079Z,71.31
2023-04-18T23:55:12.229Z,71.42
2023-04-18T23:57:44.541Z,71.61
